sensor_id;sensor_type;location;lat;lon;timestamp;P1;durP1;ratioP1;P2;durP2;ratioP2
23404;SDS011;11875;49.356;2.718;2022-09-27T00:00:29;7.07;;;2.43;;
23404;SDS011;11875;49.356;2.718;2022-09-27T00:02:55;8.60;;;2.13;;
23404;SDS011;11875;49.356;2.718;2022-09-27T00:05:20;8.53;;;2.47;;
23404;SDS011;11875;49.356;2.718;2022-09-27T00:07:46;3.93;;;2.17;;
23404;SDS011;11875;49.356;2.718;2022-09-27T00:10:12;6.53;;;2.70;;
23404;SDS011;11875;49.356;2.718;2022-09-27T00:12:37;7.20;;;2.90;;
23404;SDS011;11875;49.356;2.718;2022-09-27T00:15:04;5.63;;;2.40;;
23404;SDS011;11875;49.356;2.718;2022-09-27T00:17:31;8.50;;;2.73;;
23404;SDS011;11875;49.356;2.718;2022-09-27T00:20:00;8.53;;;2.57;;
23404;SDS011;11875;49.356;2.718;2022-09-27T00:22:27;6.20;;;2.87;;
23404;SDS011;11875;49.356;2.718;2022-09-27T00:24:53;7.37;;;3.20;;
23404;SDS011;11875;49.356;2.718;2022-09-27T00:27:18;10.57;;;3.27;;
23404;SDS011;11875;49.356;2.718;2022-09-27T00:29:44;14.73;;;3.17;;
23404;SDS011;11875;49.356;2.718;2022-09-27T00:32:11;11.27;;;3.33;;
23404;SDS011;11875;49.356;2.718;2022-09-27T00:34:38;6.30;;;3.00;;
23404;SDS011;11875;49.356;2.718;2022-09-27T00:37:05;8.83;;;2.80;;
23404;SDS011;11875;49.356;2.718;2022-09-27T00:39:31;8.70;;;2.83;;
23404;SDS011;11875;49.356;2.718;2022-09-27T00:41:57;7.00;;;2.80;;
23404;SDS011;11875;49.356;2.718;2022-09-27T00:53:13;6.27;;;3.10;;
23404;SDS011;11875;49.356;2.718;2022-09-27T00:55:21;6.03;;;2.70;;
23404;SDS011;11875;49.356;2.718;2022-09-27T00:57:51;5.03;;;3.30;;
23404;SDS011;11875;49.356;2.718;2022-09-27T01:00:18;5.70;;;2.80;;
23404;SDS011;11875;49.356;2.718;2022-09-27T01:02:46;8.43;;;2.90;;
23404;SDS011;11875;49.356;2.718;2022-09-27T01:05:15;10.33;;;3.00;;
23404;SDS011;11875;49.356;2.718;2022-09-27T01:07:44;9.87;;;3.20;;
23404;SDS011;11875;49.356;2.718;2022-09-27T01:10:10;9.20;;;2.70;;
23404;SDS011;11875;49.356;2.718;2022-09-27T01:15:39;9.10;;;2.97;;
23404;SDS011;11875;49.356;2.718;2022-09-27T01:21:22;5.40;;;2.70;;
23404;SDS011;11875;49.356;2.718;2022-09-27T01:24:09;10.43;;;2.87;;
23404;SDS011;11875;49.356;2.718;2022-09-27T01:29:57;10.63;;;2.87;;
23404;SDS011;11875;49.356;2.718;2022-09-27T01:32:47;7.40;;;2.60;;
23404;SDS011;11875;49.356;2.718;2022-09-27T01:38:23;6.57;;;2.33;;
23404;SDS011;11875;49.356;2.718;2022-09-27T01:41:11;12.23;;;2.97;;
23404;SDS011;11875;49.356;2.718;2022-09-27T01:43:53;6.00;;;2.60;;
23404;SDS011;11875;49.356;2.718;2022-09-27T01:46:31;5.30;;;2.23;;
23404;SDS011;11875;49.356;2.718;2022-09-27T01:49:10;5.67;;;2.20;;
23404;SDS011;11875;49.356;2.718;2022-09-27T01:51:47;5.07;;;2.30;;
23404;SDS011;11875;49.356;2.718;2022-09-27T01:54:20;4.87;;;2.37;;
23404;SDS011;11875;49.356;2.718;2022-09-27T01:56:51;7.47;;;2.03;;
23404;SDS011;11875;49.356;2.718;2022-09-27T01:59:24;7.50;;;2.63;;
23404;SDS011;11875;49.356;2.718;2022-09-27T02:01:56;7.70;;;2.57;;
23404;SDS011;11875;49.356;2.718;2022-09-27T02:04:27;5.67;;;2.50;;
23404;SDS011;11875;49.356;2.718;2022-09-27T02:06:57;6.57;;;2.40;;
23404;SDS011;11875;49.356;2.718;2022-09-27T02:09:33;5.43;;;2.53;;
23404;SDS011;11875;49.356;2.718;2022-09-27T02:12:04;8.70;;;3.20;;
23404;SDS011;11875;49.356;2.718;2022-09-27T02:14:38;8.90;;;2.93;;
23404;SDS011;11875;49.356;2.718;2022-09-27T02:17:20;7.97;;;3.20;;
23404;SDS011;11875;49.356;2.718;2022-09-27T02:23:04;8.27;;;2.67;;
23404;SDS011;11875;49.356;2.718;2022-09-27T02:25:34;7.53;;;2.60;;
23404;SDS011;11875;49.356;2.718;2022-09-27T02:28:29;9.90;;;2.77;;
23404;SDS011;11875;49.356;2.718;2022-09-27T02:30:59;7.40;;;2.90;;
23404;SDS011;11875;49.356;2.718;2022-09-27T02:33:27;8.27;;;2.40;;
23404;SDS011;11875;49.356;2.718;2022-09-27T02:35:55;10.07;;;2.93;;
23404;SDS011;11875;49.356;2.718;2022-09-27T02:38:21;5.97;;;2.70;;
23404;SDS011;11875;49.356;2.718;2022-09-27T02:40:47;7.80;;;2.57;;
23404;SDS011;11875;49.356;2.718;2022-09-27T02:43:13;8.00;;;2.30;;
23404;SDS011;11875;49.356;2.718;2022-09-27T02:45:55;7.57;;;2.40;;
23404;SDS011;11875;49.356;2.718;2022-09-27T02:48:40;5.20;;;2.30;;
23404;SDS011;11875;49.356;2.718;2022-09-27T02:51:36;8.67;;;2.30;;
23404;SDS011;11875;49.356;2.718;2022-09-27T03:05:38;10.73;;;3.00;;
23404;SDS011;11875;49.356;2.718;2022-09-27T03:08:27;8.33;;;3.00;;
23404;SDS011;11875;49.356;2.718;2022-09-27T03:10:53;9.17;;;2.97;;
23404;SDS011;11875;49.356;2.718;2022-09-27T03:13:18;8.93;;;2.70;;
23404;SDS011;11875;49.356;2.718;2022-09-27T03:15:44;8.20;;;3.00;;
23404;SDS011;11875;49.356;2.718;2022-09-27T03:18:10;8.13;;;2.67;;
23404;SDS011;11875;49.356;2.718;2022-09-27T03:20:35;8.80;;;2.53;;
23404;SDS011;11875;49.356;2.718;2022-09-27T03:23:01;5.30;;;2.20;;
23404;SDS011;11875;49.356;2.718;2022-09-27T03:25:26;5.37;;;2.40;;
23404;SDS011;11875;49.356;2.718;2022-09-27T03:27:52;8.97;;;2.50;;
23404;SDS011;11875;49.356;2.718;2022-09-27T03:30:18;7.80;;;2.00;;
23404;SDS011;11875;49.356;2.718;2022-09-27T03:32:44;4.63;;;2.00;;
23404;SDS011;11875;49.356;2.718;2022-09-27T03:35:10;9.70;;;2.37;;
23404;SDS011;11875;49.356;2.718;2022-09-27T03:37:36;5.13;;;2.07;;
23404;SDS011;11875;49.356;2.718;2022-09-27T03:40:03;6.77;;;2.30;;
23404;SDS011;11875;49.356;2.718;2022-09-27T03:42:29;8.80;;;2.23;;
23404;SDS011;11875;49.356;2.718;2022-09-27T03:44:54;6.70;;;2.13;;
23404;SDS011;11875;49.356;2.718;2022-09-27T03:47:20;5.63;;;1.80;;
23404;SDS011;11875;49.356;2.718;2022-09-27T03:49:47;9.43;;;2.10;;
23404;SDS011;11875;49.356;2.718;2022-09-27T03:52:12;6.70;;;1.73;;
23404;SDS011;11875;49.356;2.718;2022-09-27T03:54:38;4.77;;;1.60;;
23404;SDS011;11875;49.356;2.718;2022-09-27T03:57:04;6.43;;;1.50;;
23404;SDS011;11875;49.356;2.718;2022-09-27T03:59:30;7.00;;;1.50;;
23404;SDS011;11875;49.356;2.718;2022-09-27T04:01:56;6.90;;;1.80;;
23404;SDS011;11875;49.356;2.718;2022-09-27T04:04:21;6.70;;;2.20;;
23404;SDS011;11875;49.356;2.718;2022-09-27T04:06:47;5.57;;;1.50;;
23404;SDS011;11875;49.356;2.718;2022-09-27T04:09:13;5.90;;;1.60;;
23404;SDS011;11875;49.356;2.718;2022-09-27T04:11:39;5.27;;;1.97;;
23404;SDS011;11875;49.356;2.718;2022-09-27T04:14:05;3.93;;;1.60;;
23404;SDS011;11875;49.356;2.718;2022-09-27T04:16:32;6.80;;;1.83;;
23404;SDS011;11875;49.356;2.718;2022-09-27T04:18:59;3.57;;;1.27;;
23404;SDS011;11875;49.356;2.718;2022-09-27T04:21:26;3.80;;;1.20;;
23404;SDS011;11875;49.356;2.718;2022-09-27T04:23:52;7.73;;;1.60;;
23404;SDS011;11875;49.356;2.718;2022-09-27T04:26:17;4.40;;;1.37;;
23404;SDS011;11875;49.356;2.718;2022-09-27T04:28:45;3.77;;;1.30;;
23404;SDS011;11875;49.356;2.718;2022-09-27T04:31:10;3.70;;;1.20;;
23404;SDS011;11875;49.356;2.718;2022-09-27T04:33:36;7.13;;;1.70;;
23404;SDS011;11875;49.356;2.718;2022-09-27T04:36:02;7.20;;;1.60;;
23404;SDS011;11875;49.356;2.718;2022-09-27T04:38:46;5.00;;;1.63;;
23404;SDS011;11875;49.356;2.718;2022-09-27T04:41:12;8.90;;;2.13;;
23404;SDS011;11875;49.356;2.718;2022-09-27T04:43:38;8.30;;;2.07;;
23404;SDS011;11875;49.356;2.718;2022-09-27T04:46:04;13.07;;;2.50;;
23404;SDS011;11875;49.356;2.718;2022-09-27T04:48:30;9.57;;;2.27;;
23404;SDS011;11875;49.356;2.718;2022-09-27T04:50:59;4.93;;;2.40;;
23404;SDS011;11875;49.356;2.718;2022-09-27T04:53:29;5.27;;;2.07;;
23404;SDS011;11875;49.356;2.718;2022-09-27T04:55:54;8.13;;;2.27;;
23404;SDS011;11875;49.356;2.718;2022-09-27T04:58:21;9.20;;;2.30;;
23404;SDS011;11875;49.356;2.718;2022-09-27T05:00:48;15.37;;;6.67;;
23404;SDS011;11875;49.356;2.718;2022-09-27T05:03:16;7.97;;;2.40;;
23404;SDS011;11875;49.356;2.718;2022-09-27T05:05:43;11.07;;;2.80;;
23404;SDS011;11875;49.356;2.718;2022-09-27T05:08:09;9.57;;;2.90;;
23404;SDS011;11875;49.356;2.718;2022-09-27T05:10:35;9.63;;;2.83;;
23404;SDS011;11875;49.356;2.718;2022-09-27T05:13:00;8.63;;;2.57;;
23404;SDS011;11875;49.356;2.718;2022-09-27T05:15:26;6.77;;;2.80;;
23404;SDS011;11875;49.356;2.718;2022-09-27T05:17:52;10.90;;;3.30;;
23404;SDS011;11875;49.356;2.718;2022-09-27T05:20:18;8.70;;;2.40;;
23404;SDS011;11875;49.356;2.718;2022-09-27T05:22:44;5.23;;;2.43;;
23404;SDS011;11875;49.356;2.718;2022-09-27T05:25:10;8.43;;;2.70;;
23404;SDS011;11875;49.356;2.718;2022-09-27T05:27:37;6.63;;;2.77;;
23404;SDS011;11875;49.356;2.718;2022-09-27T05:30:03;8.30;;;3.20;;
23404;SDS011;11875;49.356;2.718;2022-09-27T05:32:32;10.40;;;2.40;;
23404;SDS011;11875;49.356;2.718;2022-09-27T05:34:58;7.37;;;2.07;;
23404;SDS011;11875;49.356;2.718;2022-09-27T05:37:24;7.40;;;2.87;;
23404;SDS011;11875;49.356;2.718;2022-09-27T05:39:50;5.97;;;2.57;;
23404;SDS011;11875;49.356;2.718;2022-09-27T05:42:16;10.77;;;2.90;;
23404;SDS011;11875;49.356;2.718;2022-09-27T05:44:42;8.23;;;2.57;;
23404;SDS011;11875;49.356;2.718;2022-09-27T05:47:11;5.97;;;2.47;;
23404;SDS011;11875;49.356;2.718;2022-09-27T05:49:37;8.57;;;2.87;;
23404;SDS011;11875;49.356;2.718;2022-09-27T05:52:04;8.27;;;3.20;;
23404;SDS011;11875;49.356;2.718;2022-09-27T05:54:30;8.37;;;3.03;;
23404;SDS011;11875;49.356;2.718;2022-09-27T05:56:56;7.07;;;3.20;;
23404;SDS011;11875;49.356;2.718;2022-09-27T05:59:23;6.40;;;2.43;;
23404;SDS011;11875;49.356;2.718;2022-09-27T06:01:50;10.20;;;2.93;;
23404;SDS011;11875;49.356;2.718;2022-09-27T06:04:16;9.00;;;2.73;;
23404;SDS011;11875;49.356;2.718;2022-09-27T06:06:43;7.20;;;2.20;;
23404;SDS011;11875;49.356;2.718;2022-09-27T06:09:09;9.30;;;2.70;;
23404;SDS011;11875;49.356;2.718;2022-09-27T06:11:36;6.50;;;2.30;;
23404;SDS011;11875;49.356;2.718;2022-09-27T06:14:02;11.03;;;2.53;;
23404;SDS011;11875;49.356;2.718;2022-09-27T06:16:28;11.40;;;2.43;;
23404;SDS011;11875;49.356;2.718;2022-09-27T06:18:54;10.40;;;2.63;;
23404;SDS011;11875;49.356;2.718;2022-09-27T06:21:19;7.13;;;2.53;;
23404;SDS011;11875;49.356;2.718;2022-09-27T06:23:45;8.93;;;2.53;;
23404;SDS011;11875;49.356;2.718;2022-09-27T06:26:11;12.30;;;2.40;;
23404;SDS011;11875;49.356;2.718;2022-09-27T06:28:36;10.23;;;2.40;;
23404;SDS011;11875;49.356;2.718;2022-09-27T06:31:04;3.80;;;2.27;;
23404;SDS011;11875;49.356;2.718;2022-09-27T06:33:32;7.20;;;3.57;;
23404;SDS011;11875;49.356;2.718;2022-09-27T06:36:02;8.00;;;2.20;;
23404;SDS011;11875;49.356;2.718;2022-09-27T06:38:28;7.77;;;2.07;;
23404;SDS011;11875;49.356;2.718;2022-09-27T06:40:54;9.20;;;2.67;;
23404;SDS011;11875;49.356;2.718;2022-09-27T06:43:22;4.80;;;2.30;;
23404;SDS011;11875;49.356;2.718;2022-09-27T06:45:47;7.63;;;2.57;;
23404;SDS011;11875;49.356;2.718;2022-09-27T06:48:14;7.27;;;2.23;;
23404;SDS011;11875;49.356;2.718;2022-09-27T06:50:42;5.00;;;2.80;;
23404;SDS011;11875;49.356;2.718;2022-09-27T06:53:09;5.27;;;2.43;;
23404;SDS011;11875;49.356;2.718;2022-09-27T06:55:36;14.93;;;8.90;;
23404;SDS011;11875;49.356;2.718;2022-09-27T06:58:03;6.73;;;2.80;;
23404;SDS011;11875;49.356;2.718;2022-09-27T07:00:48;11.73;;;2.60;;
23404;SDS011;11875;49.356;2.718;2022-09-27T07:03:15;12.90;;;2.00;;
23404;SDS011;11875;49.356;2.718;2022-09-27T07:05:41;9.03;;;2.10;;
23404;SDS011;11875;49.356;2.718;2022-09-27T07:08:10;5.87;;;1.93;;
23404;SDS011;11875;49.356;2.718;2022-09-27T07:10:36;9.10;;;2.17;;
23404;SDS011;11875;49.356;2.718;2022-09-27T07:13:04;3.20;;;1.80;;
23404;SDS011;11875;49.356;2.718;2022-09-27T07:15:34;5.47;;;2.10;;
23404;SDS011;11875;49.356;2.718;2022-09-27T07:18:01;5.20;;;1.80;;
23404;SDS011;11875;49.356;2.718;2022-09-27T07:20:28;3.73;;;2.10;;
23404;SDS011;11875;49.356;2.718;2022-09-27T07:22:55;8.27;;;1.77;;
23404;SDS011;11875;49.356;2.718;2022-09-27T07:25:22;8.10;;;3.73;;
23404;SDS011;11875;49.356;2.718;2022-09-27T07:27:47;5.53;;;1.60;;
23404;SDS011;11875;49.356;2.718;2022-09-27T07:30:13;6.10;;;2.23;;
23404;SDS011;11875;49.356;2.718;2022-09-27T07:32:40;3.37;;;2.00;;
23404;SDS011;11875;49.356;2.718;2022-09-27T07:35:06;6.63;;;1.80;;
23404;SDS011;11875;49.356;2.718;2022-09-27T07:37:34;3.27;;;1.40;;
23404;SDS011;11875;49.356;2.718;2022-09-27T07:40:01;4.63;;;1.70;;
23404;SDS011;11875;49.356;2.718;2022-09-27T07:42:31;4.25;;;1.30;;
23404;SDS011;11875;49.356;2.718;2022-09-27T07:44:57;5.22;;;1.38;;
23404;SDS011;11875;49.356;2.718;2022-09-27T07:47:23;3.08;;;1.50;;
23404;SDS011;11875;49.356;2.718;2022-09-27T07:49:49;6.30;;;1.23;;
23404;SDS011;11875;49.356;2.718;2022-09-27T07:52:20;5.53;;;1.47;;
23404;SDS011;11875;49.356;2.718;2022-09-27T07:54:46;5.43;;;1.37;;
23404;SDS011;11875;49.356;2.718;2022-09-27T07:57:12;14.40;;;1.60;;
23404;SDS011;11875;49.356;2.718;2022-09-27T07:59:39;7.27;;;1.23;;
23404;SDS011;11875;49.356;2.718;2022-09-27T08:02:05;5.83;;;1.50;;
23404;SDS011;11875;49.356;2.718;2022-09-27T08:04:31;4.70;;;1.30;;
23404;SDS011;11875;49.356;2.718;2022-09-27T08:06:57;5.43;;;1.50;;
23404;SDS011;11875;49.356;2.718;2022-09-27T08:09:22;5.30;;;1.30;;
23404;SDS011;11875;49.356;2.718;2022-09-27T08:11:50;5.35;;;1.10;;
23404;SDS011;11875;49.356;2.718;2022-09-27T08:14:16;4.97;;;1.15;;
23404;SDS011;11875;49.356;2.718;2022-09-27T08:16:42;5.85;;;1.20;;
23404;SDS011;11875;49.356;2.718;2022-09-27T08:19:08;7.85;;;1.15;;
23404;SDS011;11875;49.356;2.718;2022-09-27T08:21:35;3.20;;;1.30;;
23404;SDS011;11875;49.356;2.718;2022-09-27T08:24:00;3.92;;;1.23;;
23404;SDS011;11875;49.356;2.718;2022-09-27T08:26:28;8.45;;;1.48;;
23404;SDS011;11875;49.356;2.718;2022-09-27T08:28:53;4.32;;;1.25;;
23404;SDS011;11875;49.356;2.718;2022-09-27T08:31:19;6.35;;;1.20;;
23404;SDS011;11875;49.356;2.718;2022-09-27T08:33:48;2.10;;;1.00;;
23404;SDS011;11875;49.356;2.718;2022-09-27T08:36:15;6.15;;;1.52;;
23404;SDS011;11875;49.356;2.718;2022-09-27T08:38:41;5.55;;;1.52;;
23404;SDS011;11875;49.356;2.718;2022-09-27T08:41:08;7.20;;;1.33;;
23404;SDS011;11875;49.356;2.718;2022-09-27T08:47:00;7.50;;;2.92;;
23404;SDS011;11875;49.356;2.718;2022-09-27T08:49:38;6.05;;;1.38;;
23404;SDS011;11875;49.356;2.718;2022-09-27T08:52:11;6.88;;;1.20;;
23404;SDS011;11875;49.356;2.718;2022-09-27T08:54:42;5.57;;;0.88;;
23404;SDS011;11875;49.356;2.718;2022-09-27T08:57:10;5.75;;;1.35;;
23404;SDS011;11875;49.356;2.718;2022-09-27T09:02:33;8.68;;;1.40;;
23404;SDS011;11875;49.356;2.718;2022-09-27T09:05:26;2.33;;;0.90;;
23404;SDS011;11875;49.356;2.718;2022-09-27T09:08:06;3.05;;;0.82;;
23404;SDS011;11875;49.356;2.718;2022-09-27T09:16:44;5.15;;;1.92;;
23404;SDS011;11875;49.356;2.718;2022-09-27T09:25:27;9.10;;;1.65;;
23404;SDS011;11875;49.356;2.718;2022-09-27T09:30:34;5.63;;;1.23;;
23404;SDS011;11875;49.356;2.718;2022-09-27T09:36:41;5.32;;;1.60;;
23404;SDS011;11875;49.356;2.718;2022-09-27T09:39:31;7.78;;;1.08;;
23404;SDS011;11875;49.356;2.718;2022-09-27T09:47:52;8.00;;;1.33;;
23404;SDS011;11875;49.356;2.718;2022-09-27T09:50:35;10.35;;;1.23;;
23404;SDS011;11875;49.356;2.718;2022-09-27T09:55:51;9.65;;;1.38;;
23404;SDS011;11875;49.356;2.718;2022-09-27T09:58:45;4.78;;;1.23;;
23404;SDS011;11875;49.356;2.718;2022-09-27T10:03:54;6.85;;;1.50;;
23404;SDS011;11875;49.356;2.718;2022-09-27T10:06:21;8.48;;;1.70;;
23404;SDS011;11875;49.356;2.718;2022-09-27T10:08:48;6.93;;;1.42;;
23404;SDS011;11875;49.356;2.718;2022-09-27T10:11:20;7.22;;;1.20;;
23404;SDS011;11875;49.356;2.718;2022-09-27T10:13:47;7.10;;;1.38;;
23404;SDS011;11875;49.356;2.718;2022-09-27T10:16:13;6.28;;;1.27;;
23404;SDS011;11875;49.356;2.718;2022-09-27T10:18:41;10.48;;;1.42;;
23404;SDS011;11875;49.356;2.718;2022-09-27T10:21:11;5.55;;;1.30;;
23404;SDS011;11875;49.356;2.718;2022-09-27T10:26:30;5.25;;;1.00;;
23404;SDS011;11875;49.356;2.718;2022-09-27T10:28:57;3.75;;;0.90;;
23404;SDS011;11875;49.356;2.718;2022-09-27T10:31:37;7.53;;;1.48;;
23404;SDS011;11875;49.356;2.718;2022-09-27T10:34:15;5.22;;;1.20;;
23404;SDS011;11875;49.356;2.718;2022-09-27T10:36:44;3.08;;;1.08;;
23404;SDS011;11875;49.356;2.718;2022-09-27T10:39:19;6.38;;;1.23;;
23404;SDS011;11875;49.356;2.718;2022-09-27T10:41:46;2.15;;;0.95;;
23404;SDS011;11875;49.356;2.718;2022-09-27T10:46:44;2.22;;;0.98;;
23404;SDS011;11875;49.356;2.718;2022-09-27T10:51:40;4.53;;;1.20;;
23404;SDS011;11875;49.356;2.718;2022-09-27T10:54:16;9.82;;;1.27;;
23404;SDS011;11875;49.356;2.718;2022-09-27T10:56:44;5.53;;;1.17;;
23404;SDS011;11875;49.356;2.718;2022-09-27T10:59:20;1.50;;;0.65;;
23404;SDS011;11875;49.356;2.718;2022-09-27T11:01:46;4.70;;;0.95;;
23404;SDS011;11875;49.356;2.718;2022-09-27T11:04:34;4.15;;;1.05;;
23404;SDS011;11875;49.356;2.718;2022-09-27T11:07:10;2.28;;;0.80;;
23404;SDS011;11875;49.356;2.718;2022-09-27T11:09:46;1.85;;;0.70;;
23404;SDS011;11875;49.356;2.718;2022-09-27T11:12:14;3.95;;;0.95;;
23404;SDS011;11875;49.356;2.718;2022-09-27T11:14:45;3.72;;;0.70;;
23404;SDS011;11875;49.356;2.718;2022-09-27T11:20:24;2.60;;;1.00;;
23404;SDS011;11875;49.356;2.718;2022-09-27T11:23:20;4.18;;;0.95;;
23404;SDS011;11875;49.356;2.718;2022-09-27T11:31:51;2.20;;;0.90;;
23404;SDS011;11875;49.356;2.718;2022-09-27T11:39:02;8.43;;;1.23;;
23404;SDS011;11875;49.356;2.718;2022-09-27T11:47:04;2.65;;;0.95;;
23404;SDS011;11875;49.356;2.718;2022-09-27T11:55:55;2.00;;;0.90;;
23404;SDS011;11875;49.356;2.718;2022-09-27T12:06:52;3.75;;;0.80;;
23404;SDS011;11875;49.356;2.718;2022-09-27T12:09:41;3.70;;;1.20;;
23404;SDS011;11875;49.356;2.718;2022-09-27T12:12:11;3.80;;;1.02;;
23404;SDS011;11875;49.356;2.718;2022-09-27T12:14:56;4.93;;;0.85;;
23404;SDS011;11875;49.356;2.718;2022-09-27T12:17:29;2.67;;;1.00;;
23404;SDS011;11875;49.356;2.718;2022-09-27T12:20:13;2.80;;;0.93;;
23404;SDS011;11875;49.356;2.718;2022-09-27T12:22:52;4.05;;;1.40;;
23404;SDS011;11875;49.356;2.718;2022-09-27T12:25:21;6.00;;;1.05;;
23404;SDS011;11875;49.356;2.718;2022-09-27T12:27:50;2.15;;;0.90;;
23404;SDS011;11875;49.356;2.718;2022-09-27T12:30:20;3.03;;;0.80;;
23404;SDS011;11875;49.356;2.718;2022-09-27T12:33:00;3.65;;;0.82;;
23404;SDS011;11875;49.356;2.718;2022-09-27T12:35:35;1.73;;;0.63;;
23404;SDS011;11875;49.356;2.718;2022-09-27T12:38:11;2.22;;;1.05;;
23404;SDS011;11875;49.356;2.718;2022-09-27T12:40:43;2.80;;;1.00;;
23404;SDS011;11875;49.356;2.718;2022-09-27T12:43:26;1.10;;;0.77;;
23404;SDS011;11875;49.356;2.718;2022-09-27T12:50:54;2.45;;;1.25;;
23404;SDS011;11875;49.356;2.718;2022-09-27T12:53:28;4.38;;;1.00;;
23404;SDS011;11875;49.356;2.718;2022-09-27T12:58:54;4.10;;;1.00;;
23404;SDS011;11875;49.356;2.718;2022-09-27T13:07:41;3.30;;;1.10;;
23404;SDS011;11875;49.356;2.718;2022-09-27T13:10:39;6.07;;;1.27;;
23404;SDS011;11875;49.356;2.718;2022-09-27T13:13:34;7.03;;;1.02;;
23404;SDS011;11875;49.356;2.718;2022-09-27T13:16:02;9.27;;;1.20;;
23404;SDS011;11875;49.356;2.718;2022-09-27T13:21:52;1.85;;;1.20;;
23404;SDS011;11875;49.356;2.718;2022-09-27T13:24:28;4.35;;;1.15;;
23404;SDS011;11875;49.356;2.718;2022-09-27T13:27:20;2.15;;;0.88;;
23404;SDS011;11875;49.356;2.718;2022-09-27T13:29:51;2.30;;;1.20;;
23404;SDS011;11875;49.356;2.718;2022-09-27T13:32:36;5.43;;;1.27;;
23404;SDS011;11875;49.356;2.718;2022-09-27T13:35:09;4.20;;;1.63;;
23404;SDS011;11875;49.356;2.718;2022-09-27T13:43:03;4.93;;;1.35;;
23404;SDS011;11875;49.356;2.718;2022-09-27T13:48:16;5.88;;;1.48;;
23404;SDS011;11875;49.356;2.718;2022-09-27T13:50:55;6.07;;;1.73;;
23404;SDS011;11875;49.356;2.718;2022-09-27T13:53:50;8.38;;;1.77;;
23404;SDS011;11875;49.356;2.718;2022-09-27T13:56:57;7.70;;;1.73;;
23404;SDS011;11875;49.356;2.718;2022-09-27T13:59:25;7.32;;;2.20;;
23404;SDS011;11875;49.356;2.718;2022-09-27T14:02:03;4.20;;;1.55;;
23404;SDS011;11875;49.356;2.718;2022-09-27T14:04:34;7.90;;;1.42;;
23404;SDS011;11875;49.356;2.718;2022-09-27T14:07:09;4.88;;;1.23;;
23404;SDS011;11875;49.356;2.718;2022-09-27T14:09:40;7.07;;;1.63;;
23404;SDS011;11875;49.356;2.718;2022-09-27T14:12:11;7.45;;;1.65;;
23404;SDS011;11875;49.356;2.718;2022-09-27T14:14:43;6.03;;;1.83;;
23404;SDS011;11875;49.356;2.718;2022-09-27T14:17:11;7.00;;;3.42;;
23404;SDS011;11875;49.356;2.718;2022-09-27T14:19:40;10.15;;;1.80;;
23404;SDS011;11875;49.356;2.718;2022-09-27T14:22:12;6.20;;;1.70;;
23404;SDS011;11875;49.356;2.718;2022-09-27T14:27:09;8.90;;;1.95;;
23404;SDS011;11875;49.356;2.718;2022-09-27T14:30:17;8.68;;;1.90;;
23404;SDS011;11875;49.356;2.718;2022-09-27T14:32:48;5.45;;;1.75;;
23404;SDS011;11875;49.356;2.718;2022-09-27T14:35:16;7.65;;;1.67;;
23404;SDS011;11875;49.356;2.718;2022-09-27T14:38:07;5.82;;;1.80;;
23404;SDS011;11875;49.356;2.718;2022-09-27T14:43:23;6.45;;;2.25;;
23404;SDS011;11875;49.356;2.718;2022-09-27T14:45:50;5.53;;;2.00;;
23404;SDS011;11875;49.356;2.718;2022-09-27T14:51:00;9.32;;;2.00;;
23404;SDS011;11875;49.356;2.718;2022-09-27T14:53:48;8.18;;;2.75;;
23404;SDS011;11875;49.356;2.718;2022-09-27T14:56:21;10.18;;;2.40;;
23404;SDS011;11875;49.356;2.718;2022-09-27T14:58:52;27.83;;;16.05;;
23404;SDS011;11875;49.356;2.718;2022-09-27T15:01:26;8.15;;;4.03;;
23404;SDS011;11875;49.356;2.718;2022-09-27T15:03:52;7.57;;;1.98;;
23404;SDS011;11875;49.356;2.718;2022-09-27T15:06:19;6.60;;;5.10;;
23404;SDS011;11875;49.356;2.718;2022-09-27T15:08:46;10.82;;;6.97;;
23404;SDS011;11875;49.356;2.718;2022-09-27T15:11:14;6.03;;;1.55;;
23404;SDS011;11875;49.356;2.718;2022-09-27T15:13:41;8.45;;;2.53;;
23404;SDS011;11875;49.356;2.718;2022-09-27T15:16:12;5.57;;;2.20;;
23404;SDS011;11875;49.356;2.718;2022-09-27T15:18:43;8.80;;;2.33;;
23404;SDS011;11875;49.356;2.718;2022-09-27T15:21:14;7.88;;;2.13;;
23404;SDS011;11875;49.356;2.718;2022-09-27T15:23:53;6.63;;;2.28;;
23404;SDS011;11875;49.356;2.718;2022-09-27T15:26:26;4.93;;;1.60;;
23404;SDS011;11875;49.356;2.718;2022-09-27T15:29:00;9.90;;;2.15;;
23404;SDS011;11875;49.356;2.718;2022-09-27T15:31:29;8.45;;;3.25;;
23404;SDS011;11875;49.356;2.718;2022-09-27T15:33:58;6.85;;;1.83;;
23404;SDS011;11875;49.356;2.718;2022-09-27T15:39:14;5.20;;;1.80;;
23404;SDS011;11875;49.356;2.718;2022-09-27T15:44:48;5.97;;;1.80;;
23404;SDS011;11875;49.356;2.718;2022-09-27T15:52:44;11.15;;;2.53;;
23404;SDS011;11875;49.356;2.718;2022-09-27T15:55:12;9.25;;;2.28;;
23404;SDS011;11875;49.356;2.718;2022-09-27T15:57:38;11.32;;;1.95;;
23404;SDS011;11875;49.356;2.718;2022-09-27T16:00:05;19.27;;;10.68;;
23404;SDS011;11875;49.356;2.718;2022-09-27T16:02:36;10.38;;;2.58;;
23404;SDS011;11875;49.356;2.718;2022-09-27T16:05:01;12.77;;;4.30;;
23404;SDS011;11875;49.356;2.718;2022-09-27T16:07:27;11.07;;;2.80;;
23404;SDS011;11875;49.356;2.718;2022-09-27T16:09:53;9.35;;;3.08;;
23404;SDS011;11875;49.356;2.718;2022-09-27T16:12:19;8.68;;;3.50;;
23404;SDS011;11875;49.356;2.718;2022-09-27T16:14:45;6.20;;;2.00;;
23404;SDS011;11875;49.356;2.718;2022-09-27T16:17:12;7.85;;;2.47;;
23404;SDS011;11875;49.356;2.718;2022-09-27T16:19:38;9.85;;;2.85;;
23404;SDS011;11875;49.356;2.718;2022-09-27T16:22:03;8.27;;;3.58;;
23404;SDS011;11875;49.356;2.718;2022-09-27T16:24:29;14.70;;;5.82;;
23404;SDS011;11875;49.356;2.718;2022-09-27T16:26:56;13.68;;;3.83;;
23404;SDS011;11875;49.356;2.718;2022-09-27T16:29:22;10.55;;;2.90;;
23404;SDS011;11875;49.356;2.718;2022-09-27T16:31:48;14.18;;;3.63;;
23404;SDS011;11875;49.356;2.718;2022-09-27T16:34:14;10.23;;;4.25;;
23404;SDS011;11875;49.356;2.718;2022-09-27T16:36:40;11.50;;;4.15;;
23404;SDS011;11875;49.356;2.718;2022-09-27T16:39:07;11.98;;;3.60;;
23404;SDS011;11875;49.356;2.718;2022-09-27T16:41:36;15.52;;;6.13;;
23404;SDS011;11875;49.356;2.718;2022-09-27T16:44:06;10.75;;;4.53;;
23404;SDS011;11875;49.356;2.718;2022-09-27T16:46:33;14.93;;;4.18;;
23404;SDS011;11875;49.356;2.718;2022-09-27T16:48:59;9.63;;;4.40;;
23404;SDS011;11875;49.356;2.718;2022-09-27T16:51:25;14.27;;;5.47;;
23404;SDS011;11875;49.356;2.718;2022-09-27T16:54:10;36.25;;;18.85;;
23404;SDS011;11875;49.356;2.718;2022-09-27T16:56:39;23.73;;;12.50;;
23404;SDS011;11875;49.356;2.718;2022-09-27T16:59:05;9.45;;;4.75;;
23404;SDS011;11875;49.356;2.718;2022-09-27T17:01:31;17.08;;;6.70;;
23404;SDS011;11875;49.356;2.718;2022-09-27T17:03:58;37.42;;;23.00;;
23404;SDS011;11875;49.356;2.718;2022-09-27T17:06:24;19.70;;;10.60;;
23404;SDS011;11875;49.356;2.718;2022-09-27T17:08:52;14.98;;;6.60;;
23404;SDS011;11875;49.356;2.718;2022-09-27T17:11:19;24.60;;;11.77;;
23404;SDS011;11875;49.356;2.718;2022-09-27T17:13:45;33.08;;;17.55;;
23404;SDS011;11875;49.356;2.718;2022-09-27T17:16:13;15.68;;;8.32;;
23404;SDS011;11875;49.356;2.718;2022-09-27T17:18:39;11.43;;;5.10;;
23404;SDS011;11875;49.356;2.718;2022-09-27T17:21:06;15.00;;;6.20;;
23404;SDS011;11875;49.356;2.718;2022-09-27T17:23:33;19.63;;;7.60;;
23404;SDS011;11875;49.356;2.718;2022-09-27T17:26:07;13.73;;;5.50;;
23404;SDS011;11875;49.356;2.718;2022-09-27T17:28:38;15.52;;;6.05;;
23404;SDS011;11875;49.356;2.718;2022-09-27T17:31:07;25.83;;;11.98;;
23404;SDS011;11875;49.356;2.718;2022-09-27T17:33:45;20.08;;;10.73;;
23404;SDS011;11875;49.356;2.718;2022-09-27T17:36:13;11.60;;;5.15;;
23404;SDS011;11875;49.356;2.718;2022-09-27T17:38:41;11.55;;;5.80;;
23404;SDS011;11875;49.356;2.718;2022-09-27T17:41:09;17.63;;;5.22;;